Terminal Aerodrome Forecast
Issued by NWS Grand Junction, CO

Home | Current Version | Previous Version | Text Only | Print | Product List | Glossary On
Versions: 1 2 3 4 5 6 7 8 9 10 11 12 13 14 15 16 17 18 19 20
000
FTUS45 KGJT 011720
TAFGJT
TAF
KGJT 011720Z 0118/0218 13006KT P6SM BKN100
     FM011900 16006G18KT P6SM VCSH OVC080
     FM020000 14007KT P6SM VCSH OVC060
     FM020300 11009KT P6SM VCSH OVC050
     FM020600 12006KT P6SM OVC060=

USA.gov is the U.S. government's official web portal to all federal, state and local government web resources and services.